Time;durP1;ratioP1;P1;durP2;ratioP2;P2;SDS_P1;SDS_P2;PMS_P1;PMS_P2;Temp;Humidity;BMP_temperature;BMP_pressure;BME280_temperature;BME280_humidity;BME280_pressure;Samples;Min_cycle;Max_cycle;Signal;HPM_P1;HPM_P2
2022/05/01 00:00:47;;;;;;;20.70;13.18;;;;;;;7.57;100.00;101419.92;1787276;80;21027;-64
2022/05/01 00:03:35;;;;;;;21.15;13.58;;;;;;;7.54;100.00;101424.67;1787559;80;20999;-63
2022/05/01 00:05:44;;;;;;;22.82;13.30;;;;;;;7.55;100.00;101424.23;1766478;80;21550;-63
2022/05/01 00:08:12;;;;;;;23.27;13.58;;;;;;;7.51;100.00;101418.74;1787542;80;21006;-64
2022/05/01 00:10:40;;;;;;;22.35;12.90;;;;;;;7.49;100.00;101426.89;1787332;80;21047;-63
2022/05/01 00:13:08;;;;;;;22.25;13.28;;;;;;;7.45;100.00;101422.69;1787546;80;21547;-64
2022/05/01 00:15:35;;;;;;;28.30;16.52;;;;;;;7.53;100.00;101422.97;1788030;80;21077;-64
2022/05/01 00:18:02;;;;;;;23.20;14.80;;;;;;;7.57;100.00;101415.63;1787365;80;21066;-64
2022/05/01 00:20:29;;;;;;;23.77;12.78;;;;;;;7.66;100.00;101417.63;1787329;80;21018;-63
2022/05/01 00:22:56;;;;;;;20.32;12.55;;;;;;;7.70;100.00;101413.70;1787546;80;21050;-63
2022/05/01 00:25:23;;;;;;;20.37;11.78;;;;;;;7.77;100.00;101417.85;1787409;80;21051;-63
2022/05/01 00:27:51;;;;;;;19.98;11.80;;;;;;;7.85;100.00;101418.13;1787610;80;21030;-63
2022/05/01 00:30:18;;;;;;;19.57;11.95;;;;;;;7.75;100.00;101411.07;1787412;80;21363;-63
2022/05/01 00:38:17;;;;;;;19.73;12.50;;;;;;;8.03;100.00;101418.66;1787680;80;21042;-63
2022/05/01 00:40:44;;;;;;;19.05;12.63;;;;;;;8.09;100.00;101422.84;1787463;80;21042;-63
2022/05/01 00:43:12;;;;;;;22.62;12.95;;;;;;;8.24;100.00;101429.38;1787697;80;21024;-63
2022/05/01 00:45:39;;;;;;;21.10;12.80;;;;;;;8.18;100.00;101434.63;1787421;80;21042;-64
2022/05/01 00:48:08;;;;;;;18.57;12.20;;;;;;;8.17;100.00;101431.64;1787480;80;21074;-63
2022/05/01 00:50:36;;;;;;;18.20;12.60;;;;;;;8.07;100.00;101433.56;1785649;80;21482;-63
2022/05/01 00:53:06;;;;;;;19.62;11.83;;;;;;;8.01;100.00;101432.39;1777807;79;21040;-63
2022/05/01 00:55:34;;;;;;;25.08;13.28;;;;;;;8.01;100.00;101442.20;1777305;81;21502;-64
2022/05/01 00:58:05;;;;;;;21.97;12.05;;;;;;;7.98;100.00;101438.40;1777679;81;20998;-64
2022/05/01 01:00:34;;;;;;;22.27;12.00;;;;;;;8.07;100.00;101437.81;1777839;81;21005;-64
2022/05/01 01:03:02;;;;;;;18.77;12.15;;;;;;;8.08;100.00;101436.52;1743561;81;21032;-64
2022/05/01 01:05:29;;;;;;;17.90;11.90;;;;;;;7.87;100.00;101436.48;1770056;81;21565;-64
2022/05/01 01:08:02;;;;;;;21.12;12.30;;;;;;;7.70;100.00;101441.05;1769880;81;21041;-65
2022/05/01 01:10:30;;;;;;;19.05;11.35;;;;;;;7.58;100.00;101434.00;1770254;81;21018;-63
2022/05/01 01:12:58;;;;;;;22.65;12.30;;;;;;;7.63;100.00;101433.47;1770000;81;21549;-63
2022/05/01 01:15:29;;;;;;;21.65;12.07;;;;;;;7.69;100.00;101435.08;1770087;81;21014;-63
2022/05/01 01:17:57;;;;;;;22.58;12.85;;;;;;;7.82;100.00;101434.42;1770253;80;21069;-63
2022/05/01 01:20:27;;;;;;;21.70;12.18;;;;;;;7.82;100.00;101433.98;1777407;81;21053;-64
2022/05/01 01:22:58;;;;;;;24.70;12.78;;;;;;;7.78;100.00;101432.34;1777728;81;21009;-64
2022/05/01 01:25:29;;;;;;;18.55;12.00;;;;;;;7.93;100.00;101435.53;1761659;81;21502;-63
2022/05/01 01:28:03;;;;;;;22.27;11.22;;;;;;;8.39;100.00;101438.48;1712830;84;21465;-63
2022/05/01 01:33:19;;;;;;;23.15;13.05;;;;;;;8.53;100.00;101442.09;1770321;81;21522;-63
2022/05/01 01:35:49;;;;;;;24.15;13.45;;;;;;;8.29;100.00;101448.07;1769768;81;21022;-63
2022/05/01 01:38:18;;;;;;;25.90;15.72;;;;;;;7.72;100.00;101454.23;1770042;81;21077;-63
2022/05/01 01:40:55;;;;;;;25.60;15.43;;;;;;;7.68;100.00;101446.19;1769740;81;21025;-63
2022/05/01 01:43:28;;;;;;;25.37;15.80;;;;;;;7.72;100.00;101445.27;1769907;81;21065;-63
2022/05/01 01:45:57;;;;;;;22.67;15.10;;;;;;;8.05;100.00;101439.56;1770580;81;21486;-63
2022/05/01 01:48:25;;;;;;;24.02;15.18;;;;;;;9.83;100.00;101439.48;1770068;81;21557;-63
2022/05/01 01:51:03;;;;;;;28.20;15.65;;;;;;;9.11;100.00;101443.39;1766906;80;21019;-63
2022/05/01 01:53:33;;;;;;;21.35;13.90;;;;;;;7.91;100.00;101448.38;1787443;80;21046;-63
2022/05/01 01:56:01;;;;;;;24.72;15.98;;;;;;;9.38;100.00;101442.34;1787597;80;21042;-63
2022/05/01 01:58:30;;;;;;;23.92;16.05;;;;;;;8.67;100.00;101455.92;1787432;80;21039;-63
2022/05/01 02:01:02;;;;;;;26.55;16.42;;;;;;;8.66;100.00;101453.80;1787430;80;21042;-63
2022/05/01 02:03:31;;;;;;;29.30;15.65;;;;;;;8.26;100.00;101455.84;1787592;80;21014;-63
2022/05/01 02:05:59;;;;;;;28.05;15.70;;;;;;;9.52;100.00;101461.28;1787586;80;21074;-63
2022/05/01 02:08:27;;;;;;;27.40;16.42;;;;;;;8.83;100.00;101457.28;1787842;80;21483;-63
2022/05/01 02:10:54;;;;;;;25.70;15.18;;;;;;;9.34;100.00;101457.42;1787659;80;21039;-63
2022/05/01 02:13:21;;;;;;;25.00;15.08;;;;;;;8.82;100.00;101466.72;1787611;80;21523;-64
2022/05/01 02:15:49;;;;;;;28.02;15.32;;;;;;;8.77;100.00;101466.40;1787540;80;21042;-64
2022/05/01 02:18:17;;;;;;;26.55;15.23;;;;;;;8.71;100.00;101468.65;1787222;80;21003;-63
2022/05/01 02:23:30;;;;;;;20.75;13.60;;;;;;;9.10;100.00;101466.53;1787416;80;21069;-63
2022/05/01 02:25:57;;;;;;;26.48;14.28;;;;;;;10.23;100.00;101470.14;1787631;80;21030;-64
2022/05/01 02:28:24;;;;;;;22.30;14.25;;;;;;;9.06;100.00;101470.05;1787347;80;21031;-64
2022/05/01 02:30:51;;;;;;;25.23;15.00;;;;;;;8.89;100.00;101467.42;1787646;80;21066;-63
2022/05/01 02:33:20;;;;;;;25.90;15.68;;;;;;;8.94;100.00;101466.89;1787382;80;21046;-63
2022/05/01 02:35:48;;;;;;;22.70;15.23;;;;;;;8.82;100.00;101467.16;1787489;80;20979;-63
2022/05/01 02:38:15;;;;;;;23.92;15.03;;;;;;;9.11;100.00;101470.81;1787549;80;21002;-63
2022/05/01 02:40:42;;;;;;;25.92;15.15;;;;;;;8.91;100.00;101470.80;1787373;80;20995;-63
2022/05/01 02:43:10;;;;;;;26.52;15.20;;;;;;;8.95;100.00;101477.56;1787586;80;21043;-64
2022/05/01 02:45:38;;;;;;;25.32;15.28;;;;;;;9.02;100.00;101476.56;1787398;80;21038;-63
2022/05/01 02:48:07;;;;;;;27.55;13.98;;;;;;;9.11;100.00;101474.66;1787523;80;21612;-63
2022/05/01 02:50:34;;;;;;;23.73;13.98;;;;;;;9.37;100.00;101480.05;1787485;80;21042;-63
2022/05/01 02:53:04;;;;;;;21.55;13.30;;;;;;;9.00;100.00;101477.45;1777497;80;21018;-64
2022/05/01 02:55:32;;;;;;;21.95;14.60;;;;;;;9.00;100.00;101473.59;1777681;81;21068;-63
2022/05/01 02:57:59;;;;;;;21.93;13.65;;;;;;;9.08;100.00;101481.97;1777585;81;21073;-64
2022/05/01 03:00:27;;;;;;;23.38;14.28;;;;;;;9.12;100.00;101479.74;1777579;81;21069;-63
2022/05/01 03:02:56;;;;;;;23.38;14.47;;;;;;;9.17;100.00;101476.64;1777303;81;21025;-64
2022/05/01 03:05:24;;;;;;;21.37;13.80;;;;;;;9.45;100.00;101483.72;1777690;81;21096;-63
2022/05/01 03:07:56;;;;;;;23.80;14.20;;;;;;;9.54;100.00;101483.48;1777356;79;21065;-64
2022/05/01 03:10:25;;;;;;;20.43;13.43;;;;;;;9.65;100.00;101492.25;1777476;81;21034;-63
2022/05/01 03:12:52;;;;;;;21.35;13.98;;;;;;;9.30;100.00;101493.06;1777564;81;21025;-64
2022/05/01 03:15:24;;;;;;;19.82;13.18;;;;;;;9.30;100.00;101499.04;1777379;81;21017;-63
2022/05/01 03:23:22;;;;;;;21.57;14.25;;;;;;;9.50;100.00;101504.17;1777474;81;21518;-63
2022/05/01 03:25:50;;;;;;;20.85;14.13;;;;;;;9.29;100.00;101514.06;1777425;80;21076;-63
2022/05/01 03:28:17;;;;;;;21.35;13.65;;;;;;;9.45;100.00;101518.84;1777661;81;21069;-64
2022/05/01 03:30:45;;;;;;;24.70;15.00;;;;;;;9.48;100.00;101520.06;1777341;81;21002;-64
2022/05/01 03:33:13;;;;;;;23.38;14.47;;;;;;;9.51;100.00;101519.56;1777039;81;21049;-63
2022/05/01 03:35:41;;;;;;;21.23;12.98;;;;;;;9.67;100.00;101514.03;1777469;81;20997;-63
2022/05/01 03:38:08;;;;;;;24.27;13.80;;;;;;;9.78;100.00;101517.20;1777444;81;21342;-63
2022/05/01 03:40:35;;;;;;;19.52;13.55;;;;;;;9.74;100.00;101519.00;1777636;81;21042;-63
2022/05/01 03:43:04;;;;;;;19.65;13.62;;;;;;;9.73;100.00;101518.61;1777232;81;21017;-63
2022/05/01 03:45:34;;;;;;;24.23;13.95;;;;;;;9.88;100.00;101522.52;1777665;81;21017;-63
2022/05/01 03:48:01;;;;;;;19.73;13.30;;;;;;;10.03;100.00;101525.14;1777471;81;21085;-63
2022/05/01 03:50:28;;;;;;;21.15;13.88;;;;;;;10.04;100.00;101512.70;1777438;81;21096;-63
2022/05/01 03:52:56;;;;;;;22.93;14.55;;;;;;;10.11;100.00;101520.64;1785540;79;21047;-63
2022/05/01 03:55:23;;;;;;;21.15;14.45;;;;;;;10.20;100.00;101517.01;1787299;80;21039;-64
2022/05/01 03:57:51;;;;;;;19.57;14.03;;;;;;;10.37;100.00;101518.70;1787677;80;21522;-64
2022/05/01 04:00:19;;;;;;;23.75;15.00;;;;;;;10.59;100.00;101521.98;1787359;80;21112;-64
2022/05/01 04:02:47;;;;;;;21.48;13.53;;;;;;;11.02;100.00;101516.42;1787842;80;21015;-64
2022/05/01 04:05:15;;;;;;;23.10;14.87;;;;;;;10.79;100.00;101517.56;1787439;80;21066;-64
2022/05/01 04:07:43;;;;;;;22.13;14.13;;;;;;;10.85;100.00;101516.09;1787523;80;21043;-64
2022/05/01 04:10:12;;;;;;;21.37;14.58;;;;;;;11.01;100.00;101514.75;1787754;79;21034;-63
2022/05/01 04:12:43;;;;;;;20.12;13.25;;;;;;;10.84;100.00;101520.83;1787491;80;21038;-64
2022/05/01 04:15:14;;;;;;;20.57;14.58;;;;;;;11.17;100.00;101520.72;1752525;82;21072;-64
2022/05/01 04:17:43;;;;;;;23.52;14.68;;;;;;;11.31;100.00;101523.72;1787423;80;21089;-64
2022/05/01 04:20:14;;;;;;;20.77;13.62;;;;;;;11.39;100.00;101526.06;1787769;80;21011;-64
2022/05/01 04:22:45;;;;;;;21.05;13.70;;;;;;;11.55;100.00;101520.81;1787678;80;21065;-64
2022/05/01 04:25:23;;;;;;;20.85;13.53;;;;;;;11.73;100.00;101523.70;1787709;80;21042;-64
2022/05/01 04:27:59;;;;;;;20.77;13.68;;;;;;;11.75;100.00;101524.50;1787698;80;21029;-65
2022/05/01 04:30:27;;;;;;;21.00;13.88;;;;;;;12.08;100.00;101530.29;1760433;80;20983;-66
2022/05/01 04:33:07;;;;;;;20.30;13.38;;;;;;;12.07;100.00;101536.37;1722457;83;21003;-65
2022/05/01 04:35:44;;;;;;;25.30;14.10;;;;;;;11.87;100.00;101537.00;1759575;81;21006;-65
2022/05/01 04:38:16;;;;;;;20.97;13.58;;;;;;;11.98;100.00;101528.50;1758755;81;21518;-65
2022/05/01 04:40:58;;;;;;;23.00;13.68;;;;;;;11.92;100.00;101537.73;1756972;80;21017;-65
2022/05/01 04:43:28;;;;;;;24.85;14.78;;;;;;;11.99;100.00;101528.87;1720185;83;20958;-66
2022/05/01 04:45:58;;;;;;;22.62;14.45;;;;;;;12.08;100.00;101530.75;1742450;80;21175;-66
2022/05/01 04:48:27;;;;;;;21.70;14.43;;;;;;;12.38;100.00;101527.09;1757355;81;21148;-64
2022/05/01 04:50:55;;;;;;;21.35;14.47;;;;;;;12.58;100.00;101530.27;1760269;81;22313;-65
2022/05/01 04:53:23;;;;;;;21.77;14.13;;;;;;;13.16;100.00;101525.14;1757835;81;21475;-65
2022/05/01 04:57:04;;;;;;;22.77;14.47;;;;;;;13.05;100.00;101526.82;1721282;83;21044;-64
2022/05/01 04:58:20;;;;;;;22.05;14.70;;;;;;;13.28;100.00;101535.00;1781585;80;21007;-65
2022/05/01 05:00:48;;;;;;;26.20;15.05;;;;;;;13.12;100.00;101531.30;1787353;80;21082;-66
2022/05/01 05:03:16;;;;;;;21.45;14.63;;;;;;;13.12;100.00;101533.45;1787391;80;21042;-64
2022/05/01 05:05:44;;;;;;;23.83;15.20;;;;;;;13.52;100.00;101537.53;1787576;80;21082;-64
2022/05/01 05:10:58;;;;;;;21.82;15.05;;;;;;;13.76;100.00;101531.36;1787366;80;21554;-65
2022/05/01 05:13:27;;;;;;;20.65;14.68;;;;;;;13.89;100.00;101538.19;1787687;79;21003;-64
2022/05/01 05:16:02;;;;;;;22.58;15.72;;;;;;;14.12;100.00;101534.63;1787834;80;21523;-64
2022/05/01 05:18:27;;;;;;;25.10;15.25;;;;;;;14.36;100.00;101533.20;1785596;80;21502;-65
2022/05/01 05:20:56;;;;;;;22.52;15.38;;;;;;;14.68;100.00;101534.40;1787365;80;21007;-65
2022/05/01 05:23:23;;;;;;;21.68;15.28;;;;;;;15.40;100.00;101534.09;1787323;80;21050;-65
2022/05/01 05:25:51;;;;;;;26.90;15.95;;;;;;;14.87;100.00;101541.34;1787425;80;21101;-65
2022/05/01 05:28:19;;;;;;;22.93;14.75;;;;;;;15.13;100.00;101535.78;1787242;80;21522;-64
2022/05/01 05:30:48;;;;;;;22.80;15.00;;;;;;;15.58;100.00;101547.47;1787643;80;21507;-64
2022/05/01 05:33:16;;;;;;;22.15;15.18;;;;;;;15.71;100.00;101542.52;1787558;80;21014;-64
2022/05/01 05:35:46;;;;;;;19.45;14.83;;;;;;;15.92;99.26;101543.27;1787618;80;21026;-64
2022/05/01 05:38:13;;;;;;;21.52;14.75;;;;;;;16.25;99.56;101544.23;1787275;80;21038;-65
2022/05/01 05:40:40;;;;;;;20.02;14.63;;;;;;;16.52;98.77;101541.47;1787405;80;21034;-65
2022/05/01 05:43:07;;;;;;;20.27;13.28;;;;;;;16.78;97.53;101544.46;1787560;80;21042;-64
2022/05/01 05:45:34;;;;;;;19.75;13.48;;;;;;;16.69;96.36;101541.91;1787403;80;21022;-65
2022/05/01 05:48:03;;;;;;;18.82;12.90;;;;;;;16.79;96.23;101538.36;1755164;80;21038;-66
2022/05/01 05:50:30;;;;;;;17.62;12.05;;;;;;;16.99;92.04;101545.08;1787361;80;21070;-63
2022/05/01 05:53:00;;;;;;;16.82;11.57;;;;;;;17.18;91.64;101542.33;1787244;80;21019;-65
2022/05/01 05:55:33;;;;;;;17.20;10.88;;;;;;;17.35;89.22;101542.21;1787773;80;21022;-64
2022/05/01 05:57:57;;;;;;;18.45;12.63;;;;;;;17.35;83.39;101546.11;1786958;80;21011;-65
2022/05/01 06:00:25;;;;;;;13.03;8.65;;;;;;;17.38;83.70;101552.47;1787617;80;21035;-65
2022/05/01 06:02:52;;;;;;;15.68;8.85;;;;;;;17.47;79.10;101543.29;1787434;80;21046;-65
2022/05/01 06:05:19;;;;;;;11.33;8.68;;;;;;;17.96;75.78;101542.27;1787257;80;21622;-65
2022/05/01 06:07:47;;;;;;;12.47;8.65;;;;;;;18.06;74.62;101547.30;1787720;80;21508;-64
2022/05/01 06:10:15;;;;;;;13.20;7.87;;;;;;;18.33;73.03;101546.58;1787297;80;21047;-65
2022/05/01 06:12:43;;;;;;;9.80;6.75;;;;;;;18.54;72.51;101546.59;1787624;79;20999;-65
2022/05/01 06:15:12;;;;;;;10.55;6.15;;;;;;;18.69;70.44;101544.80;1787267;80;21630;-64
2022/05/01 06:17:40;;;;;;;9.63;6.50;;;;;;;18.78;69.58;101544.25;1787459;80;21015;-64
2022/05/01 06:20:09;;;;;;;7.40;5.70;;;;;;;18.46;71.59;101543.62;1787507;80;20994;-64
2022/05/01 06:22:37;;;;;;;9.98;5.90;;;;;;;18.71;70.27;101539.50;1787405;80;21035;-65
2022/05/01 06:25:06;;;;;;;11.68;6.22;;;;;;;18.81;68.26;101536.72;1787441;80;21503;-63
2022/05/01 06:27:33;;;;;;;6.33;4.28;;;;;;;18.98;65.01;101550.03;1787501;80;21014;-63
2022/05/01 06:30:02;;;;;;;5.45;4.00;;;;;;;19.02;60.10;101546.30;1787602;80;21507;-64
2022/05/01 06:32:30;;;;;;;8.40;3.90;;;;;;;19.19;62.70;101549.13;1787257;80;21038;-64
2022/05/01 06:34:57;;;;;;;4.55;3.30;;;;;;;19.28;61.79;101540.72;1787351;80;21035;-64
2022/05/01 06:37:25;;;;;;;6.37;2.90;;;;;;;19.51;60.42;101542.31;1787367;80;21046;-64
2022/05/01 06:39:52;;;;;;;6.12;3.30;;;;;;;19.68;57.62;101545.94;1779927;80;21054;-64
2022/05/01 06:42:19;;;;;;;6.10;3.50;;;;;;;19.77;55.79;101550.59;1729673;82;21050;-64
2022/05/01 06:44:47;;;;;;;9.13;4.03;;;;;;;19.93;55.67;101549.11;1726329;81;21031;-65
2022/05/01 06:47:14;;;;;;;5.70;3.92;;;;;;;20.07;53.31;101544.72;1726302;82;21049;-65
2022/05/01 06:49:42;;;;;;;6.17;4.12;;;;;;;20.18;54.10;101552.67;1726449;83;21037;-66
2022/05/01 06:52:09;;;;;;;5.70;4.10;;;;;;;20.19;55.30;101549.97;1726264;82;21054;-64
2022/05/01 06:54:36;;;;;;;5.67;3.85;;;;;;;20.38;50.88;101564.39;1726487;82;21506;-65
2022/05/01 06:57:04;;;;;;;8.90;4.15;;;;;;;20.40;50.81;101553.36;1726336;83;21129;-63
2022/05/01 06:59:32;;;;;;;5.47;3.92;;;;;;;20.03;50.38;101554.53;1726180;82;21545;-64
2022/05/01 07:02:00;;;;;;;6.50;4.30;;;;;;;20.12;50.87;101553.09;1726322;82;21022;-66
2022/05/01 07:04:28;;;;;;;7.08;3.92;;;;;;;20.21;48.78;101554.63;1726440;82;21002;-65
2022/05/01 07:06:55;;;;;;;6.70;4.15;;;;;;;20.43;50.12;101556.22;1695816;83;21085;-65
2022/05/01 07:09:24;;;;;;;10.03;4.00;;;;;;;20.33;46.41;101560.77;1726184;83;21081;-65
2022/05/01 07:11:52;;;;;;;7.42;4.25;;;;;;;20.63;49.93;101556.18;1726449;82;21093;-64
2022/05/01 07:14:20;;;;;;;6.62;4.15;;;;;;;21.14;49.58;101559.48;1726360;83;21105;-65
2022/05/01 07:16:51;;;;;;;6.70;3.90;;;;;;;21.41;46.72;101554.03;1726520;83;21041;-66
2022/05/01 07:19:19;;;;;;;5.25;3.87;;;;;;;20.78;45.52;101554.64;1726463;83;21608;-66
2022/05/01 07:21:47;;;;;;;6.33;3.60;;;;;;;20.57;46.88;101562.64;1726470;83;21067;-64
2022/05/01 07:24:14;;;;;;;7.10;4.10;;;;;;;21.76;45.43;101557.65;1726306;83;21073;-65
2022/05/01 07:26:43;;;;;;;6.97;4.10;;;;;;;21.98;43.94;101556.39;1726306;82;21010;-65
2022/05/01 07:29:11;;;;;;;5.58;3.60;;;;;;;20.45;46.42;101560.39;1726559;83;21031;-66
2022/05/01 07:31:39;;;;;;;5.83;3.52;;;;;;;20.84;47.88;101553.83;1726337;82;21081;-64
2022/05/01 07:34:08;;;;;;;6.08;3.65;;;;;;;20.66;47.28;101548.10;1726554;81;21022;-64
2022/05/01 07:36:37;;;;;;;4.42;2.90;;;;;;;20.60;46.42;101548.91;1726198;83;21518;-66
2022/05/01 07:39:05;;;;;;;6.58;2.90;;;;;;;20.83;45.21;101554.30;1726202;83;21119;-65
2022/05/01 07:41:33;;;;;;;5.28;2.90;;;;;;;21.23;44.58;101551.45;1726545;83;21030;-64
2022/05/01 07:44:01;;;;;;;4.80;2.83;;;;;;;21.31;46.13;101560.90;1726551;82;21581;-65
2022/05/01 07:46:28;;;;;;;4.50;2.40;;;;;;;21.27;47.21;101556.83;1726559;83;21034;-65
2022/05/01 07:48:55;;;;;;;4.58;2.60;;;;;;;21.33;44.16;101561.63;1751111;82;21556;-64
2022/05/01 07:51:23;;;;;;;5.90;2.80;;;;;;;21.52;43.25;101554.58;1748545;82;21054;-64
2022/05/01 07:53:50;;;;;;;4.15;2.77;;;;;;;21.56;43.54;101551.27;1751970;81;21471;-64
2022/05/01 07:56:20;;;;;;;3.77;2.90;;;;;;;21.69;45.42;101550.70;1751460;82;21033;-65
2022/05/01 07:58:48;;;;;;;4.92;2.90;;;;;;;21.88;45.16;101557.17;1752265;82;21465;-65
2022/05/01 08:01:15;;;;;;;4.03;2.98;;;;;;;21.99;45.05;101551.97;1751377;82;21034;-65
2022/05/01 08:06:28;;;;;;;6.03;3.02;;;;;;;22.12;46.35;101549.23;1752607;82;21129;-64
2022/05/01 08:08:56;;;;;;;4.95;3.15;;;;;;;22.09;46.17;101546.38;1752593;82;21039;-64
2022/05/01 08:11:23;;;;;;;5.17;3.00;;;;;;;22.23;44.85;101547.95;1752792;82;21078;-64
2022/05/01 08:13:51;;;;;;;9.95;3.35;;;;;;;22.40;44.28;101547.98;1752601;82;21124;-64
2022/05/01 08:16:18;;;;;;;6.10;3.33;;;;;;;22.57;45.10;101548.83;1721261;82;21007;-64
2022/05/01 08:21:33;;;;;;;4.47;3.15;;;;;;;21.95;43.02;101547.91;1752692;82;21515;-64
2022/05/01 08:24:00;;;;;;;4.33;2.80;;;;;;;21.49;39.43;101544.80;1752436;82;21034;-64
2022/05/01 08:26:31;;;;;;;5.12;3.02;;;;;;;21.12;41.47;101540.91;1752628;82;21023;-64
2022/05/01 08:28:57;;;;;;;4.45;2.70;;;;;;;21.10;40.41;101541.02;1752261;82;20995;-64
2022/05/01 08:31:25;;;;;;;5.85;2.90;;;;;;;21.17;38.49;101541.42;1751881;82;21097;-64
2022/05/01 08:33:54;;;;;;;5.65;2.92;;;;;;;21.09;39.10;101532.81;1751683;82;21034;-63
2022/05/01 08:36:21;;;;;;;5.97;2.90;;;;;;;21.29;40.03;101532.67;1751633;82;21043;-64
2022/05/01 08:38:48;;;;;;;3.77;2.65;;;;;;;21.59;41.35;101523.06;1751927;82;21042;-64
2022/05/01 08:41:18;;;;;;;4.55;2.77;;;;;;;21.69;42.36;101527.59;1751544;82;21034;-65
2022/05/01 08:43:45;;;;;;;4.30;2.67;;;;;;;21.53;40.89;101527.45;1751638;82;21546;-64
2022/05/01 08:46:37;;;;;;;4.87;3.08;;;;;;;21.55;42.60;101519.45;1751871;82;21073;-64
2022/05/01 08:49:07;;;;;;;3.87;2.75;;;;;;;21.71;41.19;101516.52;1751897;82;21042;-64
2022/05/01 08:51:41;;;;;;;5.10;2.90;;;;;;;22.44;41.99;101516.62;1751577;82;22119;-64
2022/05/01 08:54:16;;;;;;;5.90;2.90;;;;;;;22.87;43.59;101514.55;1750352;80;21068;-64
2022/05/01 08:56:45;;;;;;;5.40;2.98;;;;;;;22.32;40.31;101516.27;1751080;82;21053;-64
2022/05/01 08:59:14;;;;;;;3.98;2.67;;;;;;;21.58;38.85;101511.37;1746186;82;21042;-65
2022/05/01 09:01:45;;;;;;;3.20;2.70;;;;;;;21.78;39.96;101505.95;1752275;82;20979;-65
2022/05/01 09:04:14;;;;;;;5.03;2.85;;;;;;;21.65;41.49;101495.53;1751036;80;20986;-65
2022/05/01 09:06:44;;;;;;;4.22;2.37;;;;;;;21.75;42.29;101493.06;1749760;80;21037;-64
2022/05/01 09:09:18;;;;;;;6.78;2.80;;;;;;;23.83;38.38;101498.89;1749902;80;21048;-64
2022/05/01 09:14:32;;;;;;;5.03;2.87;;;;;;;21.31;40.19;101495.42;1750022;82;20091;-64
2022/05/01 09:17:19;;;;;;;4.20;2.70;;;;;;;21.23;42.08;101492.98;1787068;80;20998;-65
2022/05/01 09:19:49;;;;;;;4.83;3.05;;;;;;;21.06;43.68;101491.61;1792777;80;21003;-66
2022/05/01 09:22:18;;;;;;;5.28;2.87;;;;;;;21.06;39.86;101492.44;1792063;80;21010;-65
2022/05/01 09:24:48;;;;;;;4.70;3.10;;;;;;;20.95;39.74;101481.93;1752995;80;21505;-65
2022/05/01 09:27:29;;;;;;;4.72;2.87;;;;;;;21.11;40.85;101486.89;1748782;82;21086;-65
2022/05/01 09:30:10;;;;;;;4.72;2.80;;;;;;;21.19;44.18;101484.55;1751612;82;21054;-66
2022/05/01 09:32:40;;;;;;;4.70;2.67;;;;;;;21.65;43.30;101480.30;1746832;81;21054;-63
2022/05/01 09:35:15;;;;;;;7.45;2.87;;;;;;;22.03;43.36;101472.61;1751933;82;21042;-65
2022/05/01 09:37:44;;;;;;;7.42;3.52;;;;;;;22.05;43.49;101471.53;1751997;81;21046;-65
2022/05/01 09:40:13;;;;;;;4.12;3.08;;;;;;;21.87;41.79;101475.58;1752133;82;21027;-65
2022/05/01 09:42:40;;;;;;;4.22;3.00;;;;;;;21.77;43.06;101471.02;1751927;82;21003;-65
2022/05/01 09:45:12;;;;;;;7.03;3.10;;;;;;;21.40;42.36;101480.31;1751821;82;21078;-64
2022/05/01 09:47:45;;;;;;;5.70;3.42;;;;;;;20.75;43.92;101472.89;1751895;82;21098;-64
2022/05/01 09:50:15;;;;;;;8.73;3.12;;;;;;;20.73;42.05;101477.41;1752091;82;21046;-64
2022/05/01 09:52:59;;;;;;;5.28;3.20;;;;;;;20.57;43.74;101473.70;1752227;81;21066;-64
2022/05/01 09:55:28;;;;;;;7.08;3.33;;;;;;;20.52;42.13;101471.42;1765588;81;21061;-64
2022/05/01 09:58:11;;;;;;;5.30;3.08;;;;;;;20.48;41.91;101477.81;1765770;81;21058;-64
2022/05/01 10:00:46;;;;;;;4.30;3.40;;;;;;;20.32;41.86;101478.05;1766008;81;21085;-64
2022/05/01 10:03:28;;;;;;;7.35;4.10;;;;;;;20.06;42.65;101479.84;1765929;81;21017;-64
2022/05/01 10:05:59;;;;;;;6.53;4.78;;;;;;;20.40;41.27;101484.05;1765728;80;21569;-64
2022/05/01 10:08:27;;;;;;;5.25;3.25;;;;;;;20.58;41.34;101478.86;1765916;81;20986;-64
2022/05/01 10:11:00;;;;;;;5.53;3.77;;;;;;;20.58;41.04;101477.55;1765928;81;21065;-64
2022/05/01 10:13:28;;;;;;;4.00;3.60;;;;;;;20.88;42.86;101477.59;1766074;81;21033;-64
2022/05/01 10:15:56;;;;;;;4.92;3.20;;;;;;;21.20;42.46;101476.55;1765935;81;21450;-64
2022/05/01 10:18:25;;;;;;;6.87;2.77;;;;;;;21.55;41.14;101464.43;1765696;81;21321;-64
2022/05/01 10:20:53;;;;;;;5.83;3.20;;;;;;;21.44;40.70;101470.97;1766613;81;21065;-64
2022/05/01 10:23:20;;;;;;;5.05;2.90;;;;;;;21.66;40.63;101467.57;1766581;81;21065;-64
2022/05/01 10:25:59;;;;;;;4.17;2.80;;;;;;;21.88;41.69;101474.16;1765939;81;22374;-64
2022/05/01 10:29:14;;;;;;;4.72;3.15;;;;;;;22.11;40.87;101471.05;1764444;80;21021;-64
2022/05/01 10:32:22;;;;;;;4.03;2.62;;;;;;;22.24;40.06;101472.27;1764261;80;20994;-65
2022/05/01 10:35:17;;;;;;;3.55;2.70;;;;;;;23.79;36.98;101466.27;1673065;84;21581;-65
2022/05/01 10:38:10;;;;;;;4.80;2.60;;;;;;;22.70;39.94;101468.63;1644183;87;21106;-64
2022/05/01 10:40:51;;;;;;;4.15;2.87;;;;;;;22.44;40.80;101465.45;1694085;83;21573;-64
2022/05/01 10:43:36;;;;;;;4.35;2.60;;;;;;;22.70;38.58;101467.31;1732464;82;21049;-64
2022/05/01 10:46:05;;;;;;;5.30;2.60;;;;;;;22.44;40.09;101462.83;1732332;83;21497;-64
2022/05/01 10:48:41;;;;;;;4.40;2.60;;;;;;;22.75;39.75;101462.55;1729866;82;21036;-65
2022/05/01 10:51:39;;;;;;;5.72;3.42;;;;;;;22.49;39.76;101461.18;1732344;83;21044;-64
2022/05/01 10:54:21;;;;;;;3.33;2.95;;;;;;;22.47;39.65;101461.30;1741419;81;21036;-64
2022/05/01 10:56:51;;;;;;;4.42;3.00;;;;;;;22.43;40.08;101453.80;1750564;82;21540;-64
2022/05/01 10:59:34;;;;;;;4.12;2.85;;;;;;;22.23;39.41;101456.64;1750614;82;21397;-64
2022/05/01 11:02:24;;;;;;;3.80;2.87;;;;;;;22.53;40.07;101456.87;1750767;80;21048;-64
2022/05/01 11:04:54;;;;;;;3.77;2.85;;;;;;;22.39;38.91;101453.20;1749695;82;21012;-64
2022/05/01 11:07:25;;;;;;;3.25;2.42;;;;;;;22.99;38.24;101453.16;1748117;81;21040;-64
2022/05/01 11:09:55;;;;;;;5.45;3.92;;;;;;;23.18;40.02;101451.67;1748345;82;21009;-64
2022/05/01 11:12:26;;;;;;;28.42;21.25;;;;;;;23.46;39.17;101448.05;1748285;82;21048;-64
2022/05/01 11:15:06;;;;;;;5.22;3.05;;;;;;;23.52;38.09;101448.39;1769972;81;21561;-64
2022/05/01 11:17:44;;;;;;;4.90;3.00;;;;;;;24.07;36.33;101443.33;1769332;81;21038;-64
2022/05/01 11:20:25;;;;;;;5.70;3.10;;;;;;;24.55;39.32;101444.84;1769999;81;22248;-64
2022/05/01 11:22:54;;;;;;;6.87;2.67;;;;;;;24.68;35.96;101443.74;1770019;81;21083;-64
2022/05/01 11:25:43;;;;;;;4.75;3.05;;;;;;;24.36;36.00;101439.48;1769953;81;21100;-64
2022/05/01 11:28:12;;;;;;;4.03;2.98;;;;;;;24.45;37.65;101443.10;1769637;81;21037;-65
2022/05/01 11:30:40;;;;;;;5.00;2.60;;;;;;;23.74;39.20;101442.14;1766407;81;21045;-65
2022/05/01 11:33:10;;;;;;;4.58;3.25;;;;;;;23.95;39.74;101431.61;1772092;80;21073;-64
2022/05/01 11:36:02;;;;;;;3.35;2.67;;;;;;;23.92;39.10;101437.61;1783423;78;21055;-65
2022/05/01 11:38:41;;;;;;;5.28;2.62;;;;;;;23.54;39.73;101436.41;1750899;81;21065;-66
2022/05/01 11:41:10;;;;;;;4.08;3.30;;;;;;;23.26;38.76;101427.41;1718008;83;21048;-64
2022/05/01 11:43:38;;;;;;;4.33;2.60;;;;;;;23.09;38.10;101428.78;1704586;84;21072;-64
2022/05/01 11:46:19;;;;;;;6.30;2.55;;;;;;;23.12;38.10;101425.43;1717839;83;21048;-65
2022/05/01 11:48:47;;;;;;;5.78;2.80;;;;;;;23.50;38.62;101424.03;1740708;81;21081;-66
2022/05/01 11:51:17;;;;;;;4.78;2.55;;;;;;;23.71;36.47;101425.30;1688797;83;21585;-64
2022/05/01 11:53:45;;;;;;;3.95;2.50;;;;;;;23.87;37.10;101423.55;1703046;83;21066;-64
2022/05/01 12:04:37;;;;;;;5.55;2.47;;;;;;;23.50;36.32;101419.23;1694634;83;21036;-65
2022/05/01 12:07:15;;;;;;;5.05;2.80;;;;;;;23.50;37.05;101412.20;1694252;85;21064;-65